sensor_id;sensor_type;location;lat;lon;timestamp;pressure;altitude;pressure_sealevel;temperature;humidity
1776;BME280;885;42.626;23.200;2023-05-03T00:01:30;112197.41;;;11.73;77.93
1776;BME280;885;42.626;23.200;2023-05-03T00:03:58;108226.75;;;11.22;78.13
1776;BME280;885;42.626;23.200;2023-05-03T00:06:25;108337.22;;;11.23;78.06
1776;BME280;885;42.626;23.200;2023-05-03T00:08:52;109574.53;;;11.41;76.89
1776;BME280;885;42.626;23.200;2023-05-03T00:11:19;111430.44;;;11.54;79.38
1776;BME280;885;42.626;23.200;2023-05-03T00:13:46;111012.09;;;11.48;77.84
1776;BME280;885;42.626;23.200;2023-05-03T00:16:13;112538.81;;;11.59;78.29
1776;BME280;885;42.626;23.200;2023-05-03T00:18:40;114034.84;;;11.74;79.77
1776;BME280;885;42.626;23.200;2023-05-03T00:21:08;115879.75;;;11.79;80.53
1776;BME280;885;42.626;23.200;2023-05-03T00:23:35;115120.25;;;11.66;80.91
1776;BME280;885;42.626;23.200;2023-05-03T00:26:01;114000.78;;;11.56;79.13
1776;BME280;885;42.626;23.200;2023-05-03T00:28:28;112853.69;;;11.30;80.15
1776;BME280;885;42.626;23.200;2023-05-03T00:30:55;113245.97;;;11.44;78.50
1776;BME280;885;42.626;23.200;2023-05-03T00:33:22;114737.44;;;11.57;80.13
1776;BME280;885;42.626;23.200;2023-05-03T00:35:48;115482.69;;;11.63;79.79
1776;BME280;885;42.626;23.200;2023-05-03T00:38:17;115493.91;;;11.69;79.57
1776;BME280;885;42.626;23.200;2023-05-03T00:40:43;116221.63;;;11.66;79.31
1776;BME280;885;42.626;23.200;2023-05-03T00:43:10;116600.16;;;11.72;78.98
1776;BME280;885;42.626;23.200;2023-05-03T00:45:38;116608.66;;;11.76;78.74
1776;BME280;885;42.626;23.200;2023-05-03T00:48:05;116608.66;;;11.76;78.28
1776;BME280;885;42.626;23.200;2023-05-03T00:50:32;117345.13;;;11.77;80.07
1776;BME280;885;42.626;23.200;2023-05-03T00:52:59;118451.16;;;11.79;81.05
1776;BME280;885;42.626;23.200;2023-05-03T00:55:28;118453.09;;;11.80;80.33
1776;BME280;885;42.626;23.200;2023-05-03T00:57:56;119550.78;;;11.78;81.68
1776;BME280;885;42.626;23.200;2023-05-03T01:00:23;119173.63;;;11.73;80.98
1776;BME280;885;42.626;23.200;2023-05-03T01:02:50;118808.06;;;11.74;80.46
1776;BME280;885;42.626;23.200;2023-05-03T01:05:18;119921.25;;;11.79;79.90
1776;BME280;885;42.626;23.200;2023-05-03T01:07:53;120631.13;;;11.66;82.44
1776;BME280;885;42.626;23.200;2023-05-03T01:10:27;120255.75;;;11.62;81.15
1776;BME280;885;42.626;23.200;2023-05-03T01:13:05;120262.56;;;11.66;80.47
1776;BME280;885;42.626;23.200;2023-05-03T01:15:43;121372.22;;;11.69;82.21
1776;BME280;885;42.626;23.200;2023-05-03T01:18:14;120627.19;;;11.64;79.71
1776;BME280;885;42.626;23.200;2023-05-03T01:20:45;120255.75;;;11.62;80.98
1776;BME280;885;42.626;23.200;2023-05-03T01:23:20;120624.22;;;11.63;81.63
1776;BME280;885;42.626;23.200;2023-05-03T01:25:51;121355.47;;;11.61;81.77
1776;BME280;885;42.626;23.200;2023-05-03T01:28:18;119476.31;;;11.39;80.00
1776;BME280;885;42.626;23.200;2023-05-03T01:30:46;115793.63;;;11.33;76.28
1776;BME280;885;42.626;23.200;2023-05-03T01:33:22;113961.19;;;11.34;74.33
1776;BME280;885;42.626;23.200;2023-05-03T01:35:55;113234.06;;;11.38;72.88
1776;BME280;885;42.626;23.200;2023-05-03T01:38:23;112472.53;;;11.22;73.09
1776;BME280;885;42.626;23.200;2023-05-03T01:40:52;110915.56;;;11.00;74.19
1776;BME280;885;42.626;23.200;2023-05-03T01:43:21;111325.34;;;10.95;74.94
1776;BME280;885;42.626;23.200;2023-05-03T01:45:48;112067.06;;;11.00;75.88
1776;BME280;885;42.626;23.200;2023-05-03T01:48:18;112807.25;;;11.04;75.60
1776;BME280;885;42.626;23.200;2023-05-03T01:50:45;112441.66;;;11.05;75.09
1776;BME280;885;42.626;23.200;2023-05-03T01:53:12;111706.09;;;11.03;74.43
1776;BME280;885;42.626;23.200;2023-05-03T01:55:39;109444.03;;;10.99;71.13
1776;BME280;885;42.626;23.200;2023-05-03T01:58:07;108537.09;;;10.94;72.86
1776;BME280;885;42.626;23.200;2023-05-03T02:00:33;106935.91;;;10.94;69.95
1776;BME280;885;42.626;23.200;2023-05-03T02:03:00;105892.09;;;10.92;68.35
1776;BME280;885;42.626;23.200;2023-05-03T02:05:27;105666.84;;;10.94;68.49
1776;BME280;885;42.626;23.200;2023-05-03T02:07:53;105068.28;;;10.78;69.07
1776;BME280;885;42.626;23.200;2023-05-03T02:10:20;102927.59;;;10.46;69.89
1776;BME280;885;42.626;23.200;2023-05-03T02:12:47;102494.31;;;10.48;69.18
1776;BME280;885;42.626;23.200;2023-05-03T02:15:15;103062.84;;;10.57;70.22
1776;BME280;885;42.626;23.200;2023-05-03T02:17:44;103292.16;;;10.49;70.48
1776;BME280;885;42.626;23.200;2023-05-03T02:20:11;101834.22;;;10.26;72.16
1776;BME280;885;42.626;23.200;2023-05-03T02:22:38;101457.38;;;10.24;70.58
1776;BME280;885;42.626;23.200;2023-05-03T02:25:05;101573.88;;;10.19;71.09
1776;BME280;885;42.626;23.200;2023-05-03T02:27:32;102951.25;;;10.31;73.20
1776;BME280;885;42.626;23.200;2023-05-03T02:29:59;104672.97;;;10.35;74.58
1776;BME280;885;42.626;23.200;2023-05-03T02:32:27;104541.03;;;10.38;74.36
1776;BME280;885;42.626;23.200;2023-05-03T02:34:54;103448.53;;;10.31;71.79
1776;BME280;885;42.626;23.200;2023-05-03T02:37:21;103366.63;;;10.32;73.42
1776;BME280;885;42.626;23.200;2023-05-03T02:39:47;104938.44;;;10.35;75.44
1776;BME280;885;42.626;23.200;2023-05-03T02:42:14;105805.75;;;10.33;76.30
1776;BME280;885;42.626;23.200;2023-05-03T02:44:41;105246.84;;;10.30;75.33
1776;BME280;885;42.626;23.200;2023-05-03T02:47:09;105564.91;;;10.24;76.08
1776;BME280;885;42.626;23.200;2023-05-03T02:49:37;105819.47;;;10.31;76.63
1776;BME280;885;42.626;23.200;2023-05-03T02:52:04;106561.75;;;10.16;78.80
1776;BME280;885;42.626;23.200;2023-05-03T02:54:32;107559.44;;;10.08;81.08
1776;BME280;885;42.626;23.200;2023-05-03T02:56:59;106790.88;;;10.06;77.94
1776;BME280;885;42.626;23.200;2023-05-03T02:59:26;106339.63;;;10.03;79.00
1776;BME280;885;42.626;23.200;2023-05-03T03:01:52;106326.47;;;10.02;78.18
1776;BME280;885;42.626;23.200;2023-05-03T03:04:19;106930.38;;;9.98;78.31
1776;BME280;885;42.626;23.200;2023-05-03T03:06:47;106922.97;;;9.97;77.40
1776;BME280;885;42.626;23.200;2023-05-03T03:09:14;107739.31;;;10.08;79.21
1776;BME280;885;42.626;23.200;2023-05-03T03:11:40;108408.56;;;10.14;77.40
1776;BME280;885;42.626;23.200;2023-05-03T03:14:07;107588.22;;;10.18;76.77
1776;BME280;885;42.626;23.200;2023-05-03T03:16:34;107631.69;;;10.20;77.68
1776;BME280;885;42.626;23.200;2023-05-03T03:19:01;106919.22;;;10.18;76.43
1776;BME280;885;42.626;23.200;2023-05-03T03:21:27;105813.84;;;10.16;75.45
1776;BME280;885;42.626;23.200;2023-05-03T03:23:57;105631.19;;;10.16;74.37
1776;BME280;885;42.626;23.200;2023-05-03T03:26:23;106039.91;;;10.23;74.71
1776;BME280;885;42.626;23.200;2023-05-03T03:28:50;107029.50;;;10.24;75.32
1776;BME280;885;42.626;23.200;2023-05-03T03:31:17;108114.88;;;10.29;75.68
1776;BME280;885;42.626;23.200;2023-05-03T03:33:44;109745.19;;;10.30;78.59
1776;BME280;885;42.626;23.200;2023-05-03T03:36:11;109611.47;;;10.25;77.77
1776;BME280;885;42.626;23.200;2023-05-03T03:38:38;110467.88;;;10.25;78.45
1776;BME280;885;42.626;23.200;2023-05-03T03:41:07;112297.38;;;10.25;81.30
1776;BME280;885;42.626;23.200;2023-05-03T03:43:33;112674.28;;;10.31;81.03
1776;BME280;885;42.626;23.200;2023-05-03T03:46:00;113424.78;;;10.41;80.79
1776;BME280;885;42.626;23.200;2023-05-03T03:48:27;111953.09;;;10.37;77.33
1776;BME280;885;42.626;23.200;2023-05-03T03:50:54;111590.69;;;10.39;76.93
1776;BME280;885;42.626;23.200;2023-05-03T03:53:20;109713.31;;;10.33;76.60
1776;BME280;885;42.626;23.200;2023-05-03T03:55:47;108174.22;;;10.27;75.50
1776;BME280;885;42.626;23.200;2023-05-03T03:58:15;107988.72;;;10.32;73.58
1776;BME280;885;42.626;23.200;2023-05-03T04:00:42;108288.81;;;10.37;74.25
1776;BME280;885;42.626;23.200;2023-05-03T04:03:09;109260.97;;;10.39;76.10
1776;BME280;885;42.626;23.200;2023-05-03T04:05:36;109968.28;;;10.43;76.75
1776;BME280;885;42.626;23.200;2023-05-03T04:08:03;109152.59;;;10.37;74.05
1776;BME280;885;42.626;23.200;2023-05-03T04:10:30;108084.00;;;10.37;73.97
1776;BME280;885;42.626;23.200;2023-05-03T04:12:57;107272.91;;;10.31;74.53
1776;BME280;885;42.626;23.200;2023-05-03T04:15:25;107053.28;;;10.29;73.18
1776;BME280;885;42.626;23.200;2023-05-03T04:17:52;107219.09;;;10.23;73.87
1776;BME280;885;42.626;23.200;2023-05-03T04:20:19;107020.59;;;10.20;74.02
1776;BME280;885;42.626;23.200;2023-05-03T04:22:45;106801.34;;;10.22;74.77
1776;BME280;885;42.626;23.200;2023-05-03T04:25:12;106493.00;;;10.27;72.88
1776;BME280;885;42.626;23.200;2023-05-03T04:27:41;106594.06;;;10.21;74.14
1776;BME280;885;42.626;23.200;2023-05-03T04:30:08;107867.25;;;10.29;76.26
1776;BME280;885;42.626;23.200;2023-05-03T04:32:37;108269.75;;;10.31;74.83
1776;BME280;885;42.626;23.200;2023-05-03T04:35:05;109743.09;;;10.38;77.19
1776;BME280;885;42.626;23.200;2023-05-03T04:37:33;110139.41;;;10.46;76.05
1776;BME280;885;42.626;23.200;2023-05-03T04:40:00;108773.19;;;10.46;73.56
1776;BME280;885;42.626;23.200;2023-05-03T04:42:28;107860.78;;;10.34;74.69
1776;BME280;885;42.626;23.200;2023-05-03T04:44:55;108228.59;;;10.38;74.00
1776;BME280;885;42.626;23.200;2023-05-03T04:47:22;108009.47;;;10.39;74.86
1776;BME280;885;42.626;23.200;2023-05-03T04:49:50;109403.22;;;10.44;75.37
1776;BME280;885;42.626;23.200;2023-05-03T04:52:17;110509.81;;;10.49;76.28
1776;BME280;885;42.626;23.200;2023-05-03T04:54:44;111987.47;;;10.56;77.32
1776;BME280;885;42.626;23.200;2023-05-03T04:57:11;113097.00;;;10.62;78.77
1776;BME280;885;42.626;23.200;2023-05-03T04:59:38;113473.38;;;10.68;77.64
1776;BME280;885;42.626;23.200;2023-05-03T05:02:05;114208.91;;;10.69;79.42
1776;BME280;885;42.626;23.200;2023-05-03T05:04:32;114577.19;;;10.70;77.95
1776;BME280;885;42.626;23.200;2023-05-03T05:07:00;115323.22;;;10.77;78.06
1776;BME280;885;42.626;23.200;2023-05-03T05:09:28;116441.88;;;10.87;78.72
1776;BME280;885;42.626;23.200;2023-05-03T05:11:55;118284.53;;;10.92;82.53
1776;BME280;885;42.626;23.200;2023-05-03T05:14:22;120097.19;;;10.80;84.28
1776;BME280;885;42.626;23.200;2023-05-03T05:16:49;121912.91;;;10.70;85.75
1776;BME280;885;42.626;23.200;2023-05-03T05:19:16;122280.03;;;10.70;83.53
1776;BME280;885;42.626;23.200;2023-05-03T05:21:43;125210.09;;;10.66;87.65
1776;BME280;885;42.626;23.200;2023-05-03T05:24:11;124079.94;;;10.52;85.46
1776;BME280;885;42.626;23.200;2023-05-03T05:26:38;122974.50;;;10.50;83.61
1776;BME280;885;42.626;23.200;2023-05-03T05:29:05;120368.63;;;10.31;80.73
1776;BME280;885;42.626;23.200;2023-05-03T05:31:31;123694.69;;;10.43;86.13
1776;BME280;885;42.626;23.200;2023-05-03T05:33:59;122952.56;;;10.39;83.36
1776;BME280;885;42.626;23.200;2023-05-03T05:36:26;124061.81;;;10.43;85.58
1776;BME280;885;42.626;23.200;2023-05-03T05:38:52;122969.50;;;10.48;82.99
1776;BME280;885;42.626;23.200;2023-05-03T05:41:21;122976.50;;;10.51;81.95
1776;BME280;885;42.626;23.200;2023-05-03T05:43:47;125193.84;;;10.58;84.15
1776;BME280;885;42.626;23.200;2023-05-03T05:46:14;122569.66;;;10.31;81.39
1776;BME280;885;42.626;23.200;2023-05-03T05:48:45;122195.81;;;10.27;83.63
1776;BME280;885;42.626;23.200;2023-05-03T05:51:12;127362.28;;;10.41;88.12
1776;BME280;885;42.626;23.200;2023-05-03T05:53:39;129587.41;;;10.50;88.19
1776;BME280;885;42.626;23.200;2023-05-03T05:56:06;133279.97;;;10.57;91.02
1776;BME280;885;42.626;23.200;2023-05-03T05:58:35;136218.75;;;10.54;91.05
1776;BME280;885;42.626;23.200;2023-05-03T06:01:02;140260.56;;;10.49;92.85
1776;BME280;885;42.626;23.200;2023-05-03T06:03:30;145079.13;;;10.59;95.84
1776;BME280;885;42.626;23.200;2023-05-03T06:05:57;148420.66;;;10.66;95.41
1776;BME280;885;42.626;23.200;2023-05-03T06:08:23;149166.97;;;10.69;94.08
1776;BME280;885;42.626;23.200;2023-05-03T06:10:50;150980.53;;;10.55;95.89
1776;BME280;885;42.626;23.200;2023-05-03T06:13:18;154316.00;;;10.58;97.27
1776;BME280;885;42.626;23.200;2023-05-03T06:15:46;157282.97;;;10.61;99.08
1776;BME280;885;42.626;23.200;2023-05-03T06:18:13;160278.53;;;10.73;100.00
1776;BME280;885;42.626;23.200;2023-05-03T06:20:40;163665.84;;;10.92;100.00
1776;BME280;885;42.626;23.200;2023-05-03T06:23:06;167036.06;;;11.03;100.00
1776;BME280;885;42.626;23.200;2023-05-03T06:25:33;168186.06;;;11.16;100.00
1776;BME280;885;42.626;23.200;2023-05-03T06:28:02;168212.41;;;11.25;100.00
1776;BME280;885;42.626;23.200;2023-05-03T06:30:29;165983.41;;;11.26;95.77
1776;BME280;885;42.626;23.200;2023-05-03T06:32:57;162643.69;;;11.27;91.89
1776;BME280;885;42.626;23.200;2023-05-03T06:35:24;160433.53;;;11.33;90.08
1776;BME280;885;42.626;23.200;2023-05-03T06:37:51;159313.03;;;11.30;89.97
1776;BME280;885;42.626;23.200;2023-05-03T06:40:18;158934.47;;;11.27;88.53
1776;BME280;885;42.626;23.200;2023-05-03T06:42:45;159286.97;;;11.19;90.39
1776;BME280;885;42.626;23.200;2023-05-03T06:45:11;159303.94;;;11.26;90.91
1776;BME280;885;42.626;23.200;2023-05-03T06:47:38;158953.97;;;11.34;89.79
1776;BME280;885;42.626;23.200;2023-05-03T06:50:09;158577.97;;;11.32;89.81
1776;BME280;885;42.626;23.200;2023-05-03T06:52:36;158216.28;;;11.36;88.53
1776;BME280;885;42.626;23.200;2023-05-03T06:55:04;158234.44;;;11.43;89.08
1776;BME280;885;42.626;23.200;2023-05-03T06:57:31;158601.38;;;11.41;90.25
1776;BME280;885;42.626;23.200;2023-05-03T06:59:58;159360.03;;;11.48;90.79
1776;BME280;885;42.626;23.200;2023-05-03T07:02:24;159747.91;;;11.54;91.13
1776;BME280;885;42.626;23.200;2023-05-03T07:04:51;158654.56;;;11.62;88.09
1776;BME280;885;42.626;23.200;2023-05-03T07:07:19;157916.63;;;11.63;87.16
1776;BME280;885;42.626;23.200;2023-05-03T07:09:47;157578.00;;;11.76;86.79
1776;BME280;885;42.626;23.200;2023-05-03T07:12:14;157596.06;;;11.83;85.58
1776;BME280;885;42.626;23.200;2023-05-03T07:14:41;157972.22;;;11.85;87.75
1776;BME280;885;42.626;23.200;2023-05-03T07:17:08;156443.59;;;11.67;85.00
1776;BME280;885;42.626;23.200;2023-05-03T07:19:35;155713.56;;;11.72;83.85
1776;BME280;885;42.626;23.200;2023-05-03T07:22:02;155750.47;;;11.86;84.02
1776;BME280;885;42.626;23.200;2023-05-03T07:24:31;155787.41;;;12.01;81.58
1776;BME280;885;42.626;23.200;2023-05-03T07:26:57;155081.09;;;12.15;79.92
1776;BME280;885;42.626;23.200;2023-05-03T07:29:24;153611.38;;;12.21;76.93
1776;BME280;885;42.626;23.200;2023-05-03T07:31:51;153642.75;;;12.33;77.32
1776;BME280;885;42.626;23.200;2023-05-03T07:34:18;154058.97;;;12.51;77.31
1776;BME280;885;42.626;23.200;2023-05-03T07:36:45;153715.53;;;12.62;76.49
1776;BME280;885;42.626;23.200;2023-05-03T07:39:12;154484.31;;;12.73;77.75
1776;BME280;885;42.626;23.200;2023-05-03T07:41:40;153755.66;;;12.78;76.64
1776;BME280;885;42.626;23.200;2023-05-03T07:44:07;154162.13;;;12.93;76.79
1776;BME280;885;42.626;23.200;2023-05-03T07:46:33;153432.06;;;12.98;75.20
1776;BME280;885;42.626;23.200;2023-05-03T07:49:00;152729.44;;;13.14;72.98
1776;BME280;885;42.626;23.200;2023-05-03T07:51:28;152392.94;;;13.28;72.05
1776;BME280;885;42.626;23.200;2023-05-03T07:53:56;152061.22;;;13.44;70.84
1776;BME280;885;42.626;23.200;2023-05-03T07:56:22;152081.06;;;13.52;72.15
1776;BME280;885;42.626;23.200;2023-05-03T07:58:51;152104.59;;;13.62;70.94
1776;BME280;885;42.626;23.200;2023-05-03T08:01:18;152103.41;;;13.61;71.93
1776;BME280;885;42.626;23.200;2023-05-03T08:03:45;151382.50;;;13.70;70.46
1776;BME280;885;42.626;23.200;2023-05-03T08:06:14;151385.00;;;13.71;71.19
1776;BME280;885;42.626;23.200;2023-05-03T08:08:41;151429.41;;;13.89;69.93
1776;BME280;885;42.626;23.200;2023-05-03T08:11:08;151468.94;;;14.05;68.50
1776;BME280;885;42.626;23.200;2023-05-03T08:13:35;151866.66;;;14.16;69.64
1776;BME280;885;42.626;23.200;2023-05-03T08:16:03;152284.56;;;14.35;69.88
1776;BME280;885;42.626;23.200;2023-05-03T08:18:30;153076.03;;;14.54;70.73
1776;BME280;885;42.626;23.200;2023-05-03T08:20:57;153500.78;;;14.75;70.22
1776;BME280;885;42.626;23.200;2023-05-03T08:23:24;152012.78;;;14.75;66.93
1776;BME280;885;42.626;23.200;2023-05-03T08:25:51;151240.06;;;14.64;66.61
1776;BME280;885;42.626;23.200;2023-05-03T08:28:19;151237.56;;;14.63;68.34
1776;BME280;885;42.626;23.200;2023-05-03T08:30:46;151999.19;;;14.70;69.69
1776;BME280;885;42.626;23.200;2023-05-03T08:33:14;150489.78;;;14.61;66.30
1776;BME280;885;42.626;23.200;2023-05-03T08:35:41;151337.38;;;15.03;66.21
1776;BME280;885;42.626;23.200;2023-05-03T08:38:07;151364.44;;;15.14;65.18
1776;BME280;885;42.626;23.200;2023-05-03T08:40:35;151797.44;;;15.39;65.28
1776;BME280;885;42.626;23.200;2023-05-03T08:43:07;151451.97;;;15.50;63.57
1776;BME280;885;42.626;23.200;2023-05-03T08:45:34;150299.91;;;15.36;62.16
1776;BME280;885;42.626;23.200;2023-05-03T08:48:02;146374.53;;;14.51;62.38
1776;BME280;885;42.626;23.200;2023-05-03T08:50:30;145543.75;;;14.13;63.83
1776;BME280;885;42.626;23.200;2023-05-03T08:53:01;146253.03;;;13.99;67.18
1776;BME280;885;42.626;23.200;2023-05-03T08:55:28;147804.56;;;14.27;67.97
1776;BME280;885;42.626;23.200;2023-05-03T08:57:55;147497.84;;;14.54;65.01
1776;BME280;885;42.626;23.200;2023-05-03T09:00:27;147465.47;;;14.41;65.86
1776;BME280;885;42.626;23.200;2023-05-03T09:02:54;148223.25;;;14.47;68.21
1776;BME280;885;42.626;23.200;2023-05-03T09:05:33;147859.94;;;14.50;67.23
1776;BME280;885;42.626;23.200;2023-05-03T09:08:00;147108.19;;;14.47;64.55
1776;BME280;885;42.626;23.200;2023-05-03T09:10:28;146359.03;;;14.44;63.42
1776;BME280;885;42.626;23.200;2023-05-03T09:12:57;146362.59;;;14.46;64.61
1776;BME280;885;42.626;23.200;2023-05-03T09:15:25;147856.34;;;14.49;68.80
1776;BME280;885;42.626;23.200;2023-05-03T09:18:12;148711.13;;;14.95;64.77
1776;BME280;885;42.626;23.200;2023-05-03T09:20:41;148780.06;;;15.24;62.99
1776;BME280;885;42.626;23.200;2023-05-03T09:23:16;149603.72;;;15.56;63.43
1776;BME280;885;42.626;23.200;2023-05-03T09:25:44;150029.97;;;15.78;61.85
1776;BME280;885;42.626;23.200;2023-05-03T09:28:11;150836.75;;;16.04;62.11
1776;BME280;885;42.626;23.200;2023-05-03T09:30:38;151639.34;;;16.27;62.91
1776;BME280;885;42.626;23.200;2023-05-03T09:33:05;151723.22;;;16.61;59.87
1776;BME280;885;42.626;23.200;2023-05-03T09:35:32;152541.91;;;16.90;61.78
1776;BME280;885;42.626;23.200;2023-05-03T09:38:01;152963.97;;;17.10;60.67
1776;BME280;885;42.626;23.200;2023-05-03T09:40:27;151876.22;;;17.23;57.63
1776;BME280;885;42.626;23.200;2023-05-03T09:43:04;152236.34;;;17.18;59.00
1776;BME280;885;42.626;23.200;2023-05-03T09:45:32;152210.34;;;17.07;60.78
1776;BME280;885;42.626;23.200;2023-05-03T09:48:00;151846.56;;;17.11;61.13
1776;BME280;885;42.626;23.200;2023-05-03T09:50:27;152238.81;;;17.19;61.43
1776;BME280;885;42.626;23.200;2023-05-03T09:52:55;152249.97;;;17.23;61.80
1776;BME280;885;42.626;23.200;2023-05-03T09:55:24;151488.94;;;17.18;59.13
1776;BME280;885;42.626;23.200;2023-05-03T09:57:53;151866.34;;;17.19;59.79
1776;BME280;885;42.626;23.200;2023-05-03T10:00:22;151482.81;;;17.15;60.64
1776;BME280;885;42.626;23.200;2023-05-03T10:02:49;150724.56;;;17.11;59.97
1776;BME280;885;42.626;23.200;2023-05-03T10:05:20;151111.63;;;17.16;60.28
1776;BME280;885;42.626;23.200;2023-05-03T10:07:49;151137.41;;;17.27;58.06
1776;BME280;885;42.626;23.200;2023-05-03T10:10:16;151123.91;;;17.21;60.48
1776;BME280;885;42.626;23.200;2023-05-03T10:12:45;151523.44;;;17.32;59.75
1776;BME280;885;42.626;23.200;2023-05-03T10:15:14;151937.91;;;17.48;60.11
1776;BME280;885;42.626;23.200;2023-05-03T10:17:42;151970.00;;;17.62;58.28
1776;BME280;885;42.626;23.200;2023-05-03T10:20:15;151585.03;;;17.57;58.42
1776;BME280;885;42.626;23.200;2023-05-03T10:23:05;150804.13;;;17.43;58.71
1776;BME280;885;42.626;23.200;2023-05-03T10:25:34;151180.38;;;17.44;60.66
1776;BME280;885;42.626;23.200;2023-05-03T10:28:03;150758.84;;;17.25;60.00
1776;BME280;885;42.626;23.200;2023-05-03T10:30:31;150374.22;;;17.20;61.33
1776;BME280;885;42.626;23.200;2023-05-03T10:33:28;150344.91;;;17.08;61.01
1776;BME280;885;42.626;23.200;2023-05-03T10:35:56;150318.03;;;16.97;62.01
1776;BME280;885;42.626;23.200;2023-05-03T10:38:24;149934.88;;;16.93;62.71
1776;BME280;885;42.626;23.200;2023-05-03T10:40:52;149154.28;;;16.79;62.93
1776;BME280;885;42.626;23.200;2023-05-03T10:43:44;148754.50;;;16.68;61.79
1776;BME280;885;42.626;23.200;2023-05-03T10:46:30;148725.50;;;16.56;62.70
1776;BME280;885;42.626;23.200;2023-05-03T10:49:19;149499.56;;;16.67;64.45
1776;BME280;885;42.626;23.200;2023-05-03T10:51:46;149121.56;;;16.65;63.75
1776;BME280;885;42.626;23.200;2023-05-03T10:54:13;148741.22;;;16.62;62.55
1776;BME280;885;42.626;23.200;2023-05-03T10:56:53;148711.03;;;16.50;63.70
1776;BME280;885;42.626;23.200;2023-05-03T10:59:22;148706.16;;;16.48;63.98
1776;BME280;885;42.626;23.200;2023-05-03T11:01:51;147951.78;;;16.44;63.44
1776;BME280;885;42.626;23.200;2023-05-03T11:04:38;147927.75;;;16.34;64.07
1776;BME280;885;42.626;23.200;2023-05-03T11:07:07;147510.59;;;16.16;65.19
1776;BME280;885;42.626;23.200;2023-05-03T11:09:35;147883.31;;;16.16;65.69
1776;BME280;885;42.626;23.200;2023-05-03T11:12:06;147890.53;;;16.19;65.63
1776;BME280;885;42.626;23.200;2023-05-03T11:14:34;148254.84;;;16.15;66.58
1776;BME280;885;42.626;23.200;2023-05-03T11:17:01;148269.28;;;16.21;65.81
1776;BME280;885;42.626;23.200;2023-05-03T11:19:28;148661.47;;;16.29;65.43
1776;BME280;885;42.626;23.200;2023-05-03T11:21:56;148688.00;;;16.40;65.71
1776;BME280;885;42.626;23.200;2023-05-03T11:24:23;149875.22;;;16.68;66.51
1776;BME280;885;42.626;23.200;2023-05-03T11:26:49;149933.66;;;16.93;62.96
1776;BME280;885;42.626;23.200;2023-05-03T11:29:16;150760.06;;;17.25;62.61
1776;BME280;885;42.626;23.200;2023-05-03T11:31:45;151238.09;;;17.68;60.50
1776;BME280;885;42.626;23.200;2023-05-03T11:34:12;152045.34;;;17.92;60.42
1776;BME280;885;42.626;23.200;2023-05-03T11:36:40;152063.84;;;18.00;59.99
1776;BME280;885;42.626;23.200;2023-05-03T11:39:07;152098.38;;;18.14;58.08
1776;BME280;885;42.626;23.200;2023-05-03T11:41:34;152533.41;;;18.39;57.74
1776;BME280;885;42.626;23.200;2023-05-03T11:44:01;152992.31;;;18.73;56.36
1776;BME280;885;42.626;23.200;2023-05-03T11:46:32;152601.50;;;18.66;56.15
1776;BME280;885;42.626;23.200;2023-05-03T11:49:02;152580.50;;;18.58;57.72
1776;BME280;885;42.626;23.200;2023-05-03T11:51:29;152998.53;;;18.75;57.25
1776;BME280;885;42.626;23.200;2023-05-03T11:53:57;153384.53;;;18.80;57.32
1776;BME280;885;42.626;23.200;2023-05-03T11:56:26;153406.94;;;18.89;57.97
1776;BME280;885;42.626;23.200;2023-05-03T11:58:54;153835.47;;;19.11;56.52
1776;BME280;885;42.626;23.200;2023-05-03T12:01:23;154228.06;;;19.18;57.06
1776;BME280;885;42.626;23.200;2023-05-03T12:03:55;154265.59;;;19.33;56.71
1776;BME280;885;42.626;23.200;2023-05-03T12:06:23;153862.94;;;19.22;56.29
1776;BME280;885;42.626;23.200;2023-05-03T12:08:51;153885.41;;;19.31;56.40
1776;BME280;885;42.626;23.200;2023-05-03T12:11:18;153082.97;;;19.10;56.34
1776;BME280;885;42.626;23.200;2023-05-03T12:13:54;152672.13;;;18.95;57.47
1776;BME280;885;42.626;23.200;2023-05-03T12:16:22;152699.34;;;19.06;56.15
1776;BME280;885;42.626;23.200;2023-05-03T12:18:50;153492.81;;;19.24;57.41
1776;BME280;885;42.626;23.200;2023-05-03T12:21:18;153540.19;;;19.43;55.99
1776;BME280;885;42.626;23.200;2023-05-03T12:23:46;153140.13;;;19.33;56.06
1776;BME280;885;42.626;23.200;2023-05-03T12:26:15;152722.91;;;19.16;56.97
1776;BME280;885;42.626;23.200;2023-05-03T12:28:43;152698.13;;;19.06;57.83
1776;BME280;885;42.626;23.200;2023-05-03T12:31:10;151828.84;;;18.57;60.80
1776;BME280;885;42.626;23.200;2023-05-03T12:33:36;151445.75;;;18.53;59.99
1776;BME280;885;42.626;23.200;2023-05-03T12:36:04;151028.34;;;18.36;60.36
1776;BME280;885;42.626;23.200;2023-05-03T12:38:31;150251.72;;;18.24;59.62
1776;BME280;885;42.626;23.200;2023-05-03T12:40:59;149424.56;;;17.91;60.79
1776;BME280;885;42.626;23.200;2023-05-03T12:43:27;148217.56;;;17.56;61.52
1776;BME280;885;42.626;23.200;2023-05-03T12:45:53;148162.19;;;17.32;64.05
1776;BME280;885;42.626;23.200;2023-05-03T12:48:23;147737.22;;;17.11;63.91
1776;BME280;885;42.626;23.200;2023-05-03T12:50:50;147331.66;;;16.97;65.83
1776;BME280;885;42.626;23.200;2023-05-03T12:53:18;146916.78;;;16.80;66.75
1776;BME280;885;42.626;23.200;2023-05-03T12:55:46;146525.91;;;16.72;64.87
1776;BME280;885;42.626;23.200;2023-05-03T12:58:14;146485.47;;;16.55;67.41
1776;BME280;885;42.626;23.200;2023-05-03T13:00:41;146460.44;;;16.44;67.89
1776;BME280;885;42.626;23.200;2023-05-03T13:03:08;145680.69;;;16.30;68.55
1776;BME280;885;42.626;23.200;2023-05-03T13:05:35;145667.69;;;16.24;68.02
1776;BME280;885;42.626;23.200;2023-05-03T13:08:02;144842.63;;;15.90;70.68
1776;BME280;885;42.626;23.200;2023-05-03T13:10:29;146316.59;;;15.83;74.16
1776;BME280;885;42.626;23.200;2023-05-03T13:12:55;147038.75;;;15.74;76.96
1776;BME280;885;42.626;23.200;2023-05-03T13:15:23;147705.53;;;15.41;82.68